x

9441102 - Westport, Wa (wptw1) Weather Station

11:30pm - Fri 2nd Dec 2016 All times are PST. -8 hours from GMT.

  • Wind
    23mph, 24mph gusts
  • Sea Temp 51°f
  • Air Temp 51°f
  • Sea Pressure 1023.7mb
  • 9441102 - Westport, Wa
  • 9441102 - Westport, Wa

More Historic Weather Station data

Upgrade to MSW Pro to gain access to the past 30 days of data for over 8000 Wavebouys and Weather Stations around the globe.

Join Pro

Comparision Forecast

View Surf forecast
   
Fri 12/02 11:30pm 23 24 mph 1023.7mb 51f 51f
11:24pm 20 21 mph 1023.5mb 51f 51f
11:18pm 17 18 mph 1023.4mb 51f 51f
11:12pm 20 24 mph 1023.4mb 51f 50f
11:06pm 14 15 mph 1023.4mb 51f 50f
11:00pm 14 16 mph 1023.3mb 51f 50f
10:36pm 16 20 mph 1023.3mb 51f 49f
10:30pm 17 26 mph 1023.3mb 51f 49f
10:24pm 22 28 mph 1023.1mb 51f 49f
10:18pm 22 28 mph 1023mb 51f 49f
10:12pm 18 26 mph 1022.9mb 51f 51f
10:06pm 17 18 mph 1022.9mb 51f 51f
10:00pm 17 21 mph 1022.7mb 51f 51f
9:36pm 10 13 mph 1022.5mb 51f 50f
9:30pm 10 13 mph 1022.5mb 51f 50f
9:24pm 10 13 mph 1022.6mb 51f 49f
9:18pm 10 11 mph 1022.7mb 51f 49f
9:12pm 11 14 mph 1022.5mb 51f 49f
9:06pm 14 17 mph 1022.5mb 51f 49f
9:00pm 15 17 mph 1022.3mb 51f 49f
8:36pm 18 22 mph 1022mb 51f 51f
8:30pm 21 23 mph 1022.1mb 51f 51f
8:24pm 20 22 mph 1022mb 51f 51f
8:18pm 22 25 mph 1021.9mb 51f 51f
8:12pm 16 20 mph 1021.7mb 51f 51f
8:06pm 17 22 mph 1021.7mb 51f 51f
8:00pm 17 21 mph 1021.6mb 51f 51f
7:36pm 18 23 mph 1021.4mb 51f 51f
7:30pm 21 24 mph 1021.3mb 51f 51f
7:24pm 22 25 mph 1021.1mb 51f 51f
7:18pm 20 24 mph 1021.2mb 52f 51f
7:12pm 21 23 mph 1021.3mb 52f 51f
7:06pm 20 22 mph 1021.3mb 52f 51f
7:00pm 23 28 mph 1021.2mb 52f 52f
6:36pm 22 25 mph 1020.7mb 51f 52f
6:30pm 23 25 mph 1020.8mb 51f 52f
6:24pm 23 25 mph 1020.8mb 51f 52f
6:18pm 21 23 mph 1020.8mb 51f 52f
6:12pm 18 23 mph 1020.8mb 51f 52f
6:06pm 20 23 mph 1020.7mb 51f 52f
6:00pm 17 20 mph 1020.6mb 51f 52f
5:36pm 20 22 mph 1020.4mb 51f 52f
5:30pm 20 22 mph 1020.4mb 51f 52f
5:24pm 17 21 mph 1020.3mb 51f 52f
5:18pm 21 23 mph 1020.4mb 51f 52f
5:12pm 22 25 mph 1020.5mb 51f 52f
5:06pm 21 25 mph 1020.5mb 51f 52f
5:00pm 17 21 mph 1020.4mb 51f 52f
4:36pm 18 22 mph 1020.2mb 52f 53f
4:30pm 21 24 mph 1020.2mb 52f 53f
4:24pm 17 24 mph 1020.1mb 52f 53f
4:18pm 21 26 mph 1020.2mb 52f 53f
4:12pm 20 24 mph 1020.2mb 52f 53f
4:06pm 20 24 mph 1020.1mb 52f 53f
4:00pm 16 20 mph 1020mb 52f 53f
3:30pm 20 24 mph 1020.3mb 52f 51f
3:24pm 18 23 mph 1020.3mb 52f 50f
3:18pm 22 26 mph 1019.9mb 52f 50f
3:12pm 28 36 mph 1020.1mb 52f 51f
3:06pm 21 30 mph 1019.7mb 52f 50f
3:00pm 23 32 mph 1019.6mb 52f 49f
12:36pm 24 38 mph 1021.5mb 53f 49f
12:30pm 22 31 mph 1021.7mb 53f 49f
12:24pm 23 33 mph 1021.8mb 53f 49f
12:18pm 25 34 mph 1021.8mb 53f 49f
12:12pm 21 34 mph 1021.7mb 53f 49f
12:06pm 18 29 mph 1021.7mb 53f 49f
12:00pm 22 33 mph 1021.6mb 53f 49f
11:36am 22 30 mph 1022mb 53f 48f
11:30am 20 29 mph 1022.1mb 53f 48f
11:24am 22 29 mph 1022.3mb 53f 48f
11:18am 18 28 mph 1022.5mb 53f 48f
11:12am 16 28 mph 1022.6mb 53f 47f
11:06am 16 21 mph 1022.8mb 53f 47f
11:00am 15 22 mph 1022.8mb 53f 47f
10:36am 14 23 mph 1023mb 52f 47f
10:30am 15 24 mph 1023.2mb 52f 47f
10:24am 15 24 mph 1022.8mb 52f 47f
10:18am 14 26 mph 1023.4mb 52f 47f
10:12am 11 22 mph 1023.9mb 52f 47f
10:06am 13 18 mph 1024mb 52f 47f
10:00am 14 18 mph 1024.1mb 52f 47f
9:36am 11 17 mph - 52f 47f
9:30am 14 17 mph - 52f 47f
9:24am 13 17 mph - 52f 47f
9:18am 11 18 mph - 53f 47f
9:12am 14 18 mph - 53f 47f
9:06am 13 20 mph - 53f 47f
9:00am 13 18 mph - 53f 47f
8:36am 13 17 mph 1024.2mb 53f 47f
8:30am 13 18 mph 1024.1mb 53f 47f
8:24am 11 21 mph 1023.9mb 53f 47f
8:18am 10 20 mph 1023.9mb 53f 47f
8:12am 15 22 mph 1023.9mb 53f 47f
8:06am 13 20 mph 1023.8mb 53f 47f
8:00am 10 18 mph 1023.9mb 53f 47f
7:36am 13 17 mph 1024.1mb 53f 47f
7:30am 9 16 mph 1024.2mb 53f 47f
7:24am 14 20 mph 1024.2mb 53f 47f
7:18am 14 20 mph 1024.4mb 53f 47f
7:12am 10 17 mph 1024.3mb 53f 47f
7:06am 13 16 mph 1024.5mb 53f 47f
7:00am 11 17 mph 1024.4mb 53f 47f
6:36am 13 21 mph 1024.2mb 53f 47f
6:30am 15 22 mph 1024.2mb 54f 47f
6:24am 13 18 mph 1024.2mb 53f 47f
6:18am 15 20 mph 1024.2mb 53f 47f
6:12am 14 21 mph 1024.1mb 53f 47f
6:06am 13 22 mph 1024.2mb 54f 47f
6:00am 15 23 mph 1024.1mb 54f 47f
5:36am 13 18 mph 1024.4mb 53f 47f
5:30am 13 20 mph 1024.4mb 54f 47f
5:24am 13 20 mph 1024.6mb 54f 47f
5:18am 14 17 mph 1024.5mb 53f 47f
5:12am 13 21 mph 1024.5mb 53f 47f
5:06am 11 22 mph 1024.5mb 53f 47f
5:00am 13 21 mph 1024.7mb 53f 47f
4:36am 13 20 mph 1025mb 53f 47f
4:30am 13 17 mph 1025mb 53f 47f
4:24am 11 16 mph 1025.1mb 53f 47f
4:18am 11 17 mph 1025.2mb 53f 47f
4:12am 11 15 mph 1025.4mb 53f 47f
4:06am 10 16 mph 1025.5mb 53f 47f
4:00am 13 17 mph 1025.5mb 53f 47f
3:36am 13 18 mph 1025.9mb 54f 47f
3:30am 10 15 mph 1025.9mb 54f 47f
3:24am 10 17 mph 1026mb 54f 47f
3:18am 10 15 mph 1026mb 54f 47f
3:12am 11 15 mph 1026.1mb 54f 47f
3:06am 8 14 mph 1026.1mb 54f 47f
3:00am 10 14 mph 1026.2mb 54f 47f
2:36am 8 11 mph 1026.3mb 54f 47f
2:30am 9 13 mph 1026.3mb 54f 47f
2:24am 9 14 mph 1026.4mb 54f 47f
2:18am 9 14 mph 1026.5mb 54f 47f
2:12am 9 13 mph 1026.4mb 54f 47f
2:06am 9 14 mph 1026.4mb 54f 47f
2:00am 7 11 mph 1026.4mb 54f 46f
1:36am 8 11 mph 1026.4mb 54f 46f
1:30am 8 11 mph 1026.5mb 54f 46f
1:24am 8 11 mph 1026.5mb 54f 46f
1:18am 7 10 mph 1026.5mb 54f 46f
1:12am 8 11 mph 1026.5mb 53f 46f
1:06am 7 10 mph 1026.5mb 53f 46f
1:00am 7 10 mph 1026.5mb 53f 46f
12:36am 7 11 mph 1026.2mb 52f 46f
12:30am 7 10 mph 1026.2mb 51f 45f
12:24am 8 10 mph 1026.2mb 51f 45f
12:18am 8 11 mph 1026.2mb 51f 45f
12:12am 7 10 mph 1026.3mb 51f 46f
12:06am 8 10 mph 1026.3mb 51f 46f
12:00am 8 10 mph 1026.4mb 51f 46f
Thu 12/01 11:54pm 8 11 mph 1026.4mb 51f 46f
11:48pm 8 10 mph 1026.4mb 50f 46f
11:36pm 9 11 mph 1026.4mb 50f 46f
11:30pm 9 13 mph 1026.3mb 50f 46f
11:24pm 9 14 mph 1026.3mb 50f 46f
11:18pm 8 10 mph 1026.4mb 50f 46f
11:12pm 7 10 mph 1026.5mb 50f 46f
11:06pm 8 10 mph 1026.4mb 50f 46f
11:00pm 7 10 mph 1026.4mb 50f 46f
10:54pm 7 10 mph 1026.4mb 50f 46f
10:48pm 8 11 mph 1026.4mb 50f 46f
10:36pm 7 9 mph 1026.4mb 51f 46f
10:30pm 7 10 mph 1026.3mb 51f 46f
10:24pm 8 10 mph 1026.3mb 51f 46f
10:18pm 7 13 mph 1026.3mb 51f 46f
10:12pm 9 13 mph 1026.2mb 51f 46f
10:06pm 7 11 mph 1026.2mb 51f 46f
10:00pm 8 10 mph 1026.2mb 51f 46f
9:54pm 8 11 mph 1026.3mb 51f 46f
9:48pm 8 9 mph 1026.4mb 51f 46f
9:36pm 8 10 mph 1026.4mb 51f 46f
9:30pm 7 10 mph 1026.2mb 51f 46f
9:24pm 8 10 mph 1026.1mb 51f 46f
9:18pm 8 10 mph 1026.1mb 51f 46f
9:12pm 9 11 mph 1026.1mb 51f 46f
9:06pm 8 11 mph 1026.1mb 51f 46f
9:00pm 9 14 mph 1026.1mb 51f 46f
8:54pm 10 13 mph 1026.1mb 51f 46f
8:48pm 9 13 mph 1026.2mb 51f 46f
8:36pm 7 9 mph 1026.2mb 51f 47f
8:30pm 7 10 mph 1026.2mb 51f 47f
8:24pm 7 9 mph 1026.1mb 51f 47f
8:18pm 6 7 mph 1026.1mb 51f 47f
8:12pm 6 9 mph 1026.2mb 51f 47f
8:06pm 7 9 mph 1026.3mb 51f 48f
8:00pm 5 8 mph 1026.4mb 51f 47f
7:54pm 6 8 mph 1026.4mb 51f 46f
7:48pm 6 8 mph 1026.4mb 51f 46f
7:36pm 6 9 mph 1026.3mb 51f 46f
7:30pm 5 9 mph 1026.1mb 51f 46f
7:24pm 8 10 mph 1026mb 51f 46f
7:18pm 7 8 mph 1026.1mb 51f 47f
7:12pm 7 8 mph 1026.1mb 51f 47f
7:06pm 7 8 mph 1026.1mb 51f 47f
7:00pm 7 8 mph 1026.2mb 51f 47f
6:54pm 6 8 mph 1026.2mb 51f 48f
6:48pm 6 9 mph 1026.2mb 51f 49f
6:30pm 9 13 mph 1026.2mb 51f 49f
6:24pm 5 8 mph 1026.3mb 51f 48f
6:18pm 5 10 mph 1026.3mb 51f 48f
6:12pm 6 9 mph 1026.3mb 51f 47f
6:06pm 5 9 mph 1026.2mb 51f 47f
6:00pm 5 8 mph 1026.2mb 51f 47f
5:54pm 5 7 mph 1026.2mb 51f 47f
5:48pm 5 7 mph 1026.3mb 51f 46f
5:30pm 7 9 mph 1026.2mb 51f 46f
5:24pm 7 8 mph 1026.3mb 51f 46f
5:18pm 6 8 mph 1026.3mb 51f 46f
5:12pm 6 9 mph 1026.3mb 51f 46f
5:06pm 6 7 mph 1026.3mb 51f 46f
5:00pm 7 8 mph 1026.3mb 51f 46f
4:54pm 6 8 mph 1026.2mb 51f 46f
4:48pm 6 8 mph 1026.1mb 51f 46f
4:36pm 7 13 mph 1026mb 51f 47f
4:30pm 8 11 mph 1025.9mb 51f 47f
4:24pm 6 9 mph 1026mb 51f 47f
4:18pm 6 9 mph 1025.8mb 51f 46f
4:12pm 6 7 mph 1025.9mb 52f 46f
4:06pm 5 8 mph 1026mb 52f 47f
4:00pm 6 9 mph 1026mb 53f 47f
3:54pm 6 9 mph 1025.9mb 51f 47f
3:48pm 5 6 mph 1025.9mb 51f 47f
3:36pm 3 6 mph 1025.9mb 51f 47f
3:30pm 6 10 mph 1026.1mb 51f 47f
3:24pm 8 10 mph 1026mb 51f 47f
3:18pm 6 9 mph 1025.9mb 52f 47f
3:12pm 9 10 mph 1025.9mb 52f 47f
3:06pm 10 14 mph 1025.7mb 52f 48f
3:00pm 13 15 mph 1025.7mb 52f 48f
2:54pm 13 15 mph 1025.7mb 52f 47f
2:48pm 5 7 mph 1025.5mb 52f 47f
2:36pm 6 8 mph 1025.3mb 52f 46f
2:30pm 7 10 mph 1025.3mb 52f 46f
2:24pm 6 9 mph 1025.4mb 53f 46f
2:18pm 7 9 mph 1025.5mb 53f 46f
2:12pm 7 9 mph 1025.4mb 53f 46f
2:06pm 6 9 mph 1025.4mb 53f 46f
2:00pm 7 9 mph 1025.4mb 53f 46f
1:54pm 5 8 mph 1025.5mb 53f 46f
1:48pm 7 9 mph 1025.5mb 53f 46f
1:36pm 5 8 mph 1025.5mb 53f 47f
1:30pm 6 9 mph 1025.6mb 53f 47f
1:24pm 7 9 mph 1025.6mb 53f 46f
1:18pm 5 6 mph 1025.6mb 53f 46f
1:12pm 3 7 mph 1025.5mb 53f 46f
1:06pm 6 8 mph 1025.4mb 54f 46f
1:00pm 6 8 mph 1025.5mb 53f 46f
12:54pm 6 8 mph 1025.6mb 53f 46f
12:48pm 6 9 mph 1025.7mb 53f 46f
12:36pm 7 9 mph 1025.8mb 53f 46f
12:30pm 6 8 mph 1025.7mb 53f 46f
12:24pm 5 6 mph 1025.6mb 53f 46f
12:18pm 5 7 mph 1025.6mb 53f 46f
12:12pm 6 8 mph 1025.6mb 53f 46f
12:06pm 6 8 mph 1025.6mb 53f 46f
12:00pm 6 7 mph 1025.6mb 53f 46f
11:54am 6 8 mph 1025.6mb 52f 46f
11:48am 6 8 mph 1025.6mb 52f 46f
11:36am 7 9 mph 1025.6mb 52f 45f
11:30am 6 8 mph 1025.7mb 52f 46f
11:24am 5 6 mph 1025.7mb 52f 46f
11:18am 6 7 mph 1025.6mb 52f 46f
11:12am 5 7 mph 1025.7mb 52f 46f
11:06am 3 5 mph 1025.7mb 52f 46f
11:00am 5 6 mph 1025.7mb 52f 45f
10:54am 3
mph
1025.8mb 52f 45f
10:48am 3
mph
1025.8mb 52f 45f
9:54am 5
mph
1025.1mb 51f 44f
9:48am 5
mph
1025.1mb 51f 44f
9:36am 3 5 mph 1025.2mb 51f 44f
9:30am 3
mph
1025.2mb 51f 44f
9:24am 2 5 mph 1025.2mb 51f 44f
9:18am 3 6 mph 1025.1mb 51f 44f
9:12am 5 7 mph 1025.1mb 51f 43f
9:06am 6
mph
1025mb 51f 44f
9:00am 6 7 mph 1024.9mb 51f 43f
8:54am 6 7 mph 1024.9mb 51f 43f
8:48am 6 7 mph 1024.9mb 51f 43f
8:36am 6 7 mph 1025mb 51f 44f
8:30am 6
mph
1024.9mb 51f 43f
8:24am 6 7 mph 1024.8mb 51f 43f
8:18am 6 7 mph 1024.8mb 51f 43f
8:12am 5 6 mph 1024.7mb 51f 44f
8:06am 7 9 mph 1024.5mb 52f 44f
8:00am 8 10 mph 1024.6mb 51f 43f
7:54am 10 13 mph 1024.4mb 51f 43f
7:48am 5 6 mph 1024.4mb 52f 43f
7:36am 6 7 mph 1024.3mb 52f 45f
7:30am 6 8 mph 1024.3mb 52f 44f
7:24am 6
mph
1024.2mb 52f 45f
7:18am 5
mph
1024.2mb 52f 44f
7:12am 3 5 mph 1024.3mb 52f 45f
7:06am 5 6 mph 1024.2mb 52f 44f
7:00am 5 6 mph 1024.2mb 52f 44f
6:54am 5 6 mph 1024.1mb 52f 44f
6:48am 3 5 mph 1024.1mb 52f 44f
6:36am 2 3 mph 1024mb 52f 44f
6:30am  -  5 mph 1024mb 52f 44f
6:24am 5
mph
1024.1mb 52f 44f
6:18am 3 6 mph 1023.9mb 52f 45f
6:12am 6 7 mph 1023.8mb 52f 45f
6:06am 7
mph
1023.8mb 52f 45f
6:00am 6 7 mph 1023.8mb 52f 45f
5:54am 7
mph
1023.9mb 53f 45f
5:48am 6 7 mph 1023.8mb 52f 45f
5:36am 6 7 mph 1023.8mb 52f 45f
5:30am 7
mph
1023.8mb 52f 45f
5:24am 6 7 mph 1023.7mb 52f 45f
5:18am 7 8 mph 1023.6mb 52f 45f
5:12am 7 9 mph 1023.6mb 52f 45f
5:06am 9 10 mph 1023.6mb 52f 45f
5:00am 8 9 mph 1023.6mb 52f 46f
4:54am 7 9 mph 1023.6mb 52f 46f
4:48am 8 10 mph 1023.6mb 53f 46f
4:36am 8 10 mph 1023.6mb 53f 46f
4:30am 9 11 mph 1023.7mb 53f 47f
4:24am 9 13 mph 1023.6mb 53f 48f
4:18am 11 14 mph 1023.5mb 52f 48f
4:12am 13 15 mph 1023.4mb 53f 48f
4:06am 16 21 mph 1023.5mb 52f 48f
4:00am 16 18 mph 1023.5mb 52f 48f
3:54am 14 16 mph 1023.6mb 53f 49f
3:48am 16 28 mph 1023.5mb 53f 48f
3:36am 11 15 mph 1023.7mb 53f 49f
3:30am 13 17 mph 1023.7mb 53f 49f
3:24am 14 17 mph 1023.6mb 53f 49f
3:18am 15 17 mph 1023.6mb 53f 49f
3:12am 16 21 mph 1023.5mb 53f 49f
3:06am 20 24 mph 1023.6mb 53f 49f
3:00am 20 24 mph 1023.6mb 53f 49f
2:54am 15 18 mph 1023.6mb 53f 49f
2:48am 17 18 mph 1023.6mb 53f 49f
2:36am 17 20 mph 1023.7mb 53f 49f
2:30am 15 18 mph 1023.6mb 53f 49f
2:24am 11 13 mph 1023.6mb 53f 48f
2:18am 6 8 mph 1023.5mb 53f 47f
2:12am 6 9 mph 1023.5mb 53f 47f
2:06am 7 9 mph 1023.4mb 53f 47f
2:00am 8 11 mph 1023.3mb 53f 47f
1:54am 11 16 mph 1023.3mb 53f 47f
1:48am 15 20 mph 1023.2mb 53f 47f
1:36am 21 23 mph 1023mb 53f 48f
1:30am 16 20 mph 1022.9mb 53f 48f
1:24am 14 15 mph 1022.8mb 53f 48f
1:18am 15 17 mph 1022.7mb 53f 48f
1:12am 15 18 mph 1022.7mb 53f 49f
1:06am 21 28 mph 1022.6mb 53f 48f
1:00am 20 22 mph 1022.6mb 53f 49f
12:54am 17 20 mph 1022.6mb 53f 49f
12:48am 17 21 mph 1022.6mb 53f 49f
12:36am 20 24 mph 1022.7mb 52f 49f
12:30am 22 24 mph 1022.7mb 52f 49f
12:24am 21 24 mph 1022.6mb 52f 49f
12:18am 18 24 mph 1022.7mb 52f 49f
12:12am 11 16 mph 1022.7mb 52f 47f
12:06am 20 41 mph 1022.4mb 52f 47f
12:00am 32 34 mph 1022.4mb 52f 48f
Wed 11/30 11:54pm 18 24 mph 1022.4mb 52f 49f
11:48pm 14 18 mph 1022.4mb 52f 48f
11:36pm 18 28 mph 1022.4mb 50f 47f
11:30pm 25 30 mph 1022.3mb 50f 47f
11:24pm 26 31 mph 1022.3mb 50f 48f
11:18pm 17 21 mph 1022.4mb 50f 48f
11:12pm 17 23 mph 1022.3mb 50f 48f
11:06pm 21 24 mph 1022.2mb 50f 49f
11:00pm 21 23 mph 1022.1mb 50f 49f
10:54pm 17 22 mph 1022.1mb 50f 49f
10:48pm 21 23 mph 1022.1mb 50f 49f
10:36pm 23 25 mph 1022mb 50f 49f
10:30pm 23 25 mph 1022mb 50f 49f
10:24pm 21 25 mph 1021.9mb 50f 49f
10:18pm 23 26 mph 1021.9mb 50f 49f
10:12pm 24 29 mph 1021.8mb 50f 49f
10:06pm 24 28 mph 1021.8mb 51f 49f
10:00pm 24 29 mph 1021.9mb 51f 49f
9:36pm 20 23 mph 1021.7mb 51f 49f
9:30pm 21 24 mph 1021.7mb 51f 49f
9:24pm 22 24 mph 1021.7mb 51f 49f
9:18pm 17 24 mph 1021.6mb 51f 49f
9:12pm 22 25 mph 1021.6mb 50f 50f
9:06pm 23 26 mph 1021.5mb 50f 49f
9:00pm 24 28 mph 1021.5mb 50f 49f
8:54pm 16 22 mph 1021.5mb 50f 49f
8:48pm 18 24 mph 1021.5mb 50f 49f
8:36pm 26 28 mph 1021.4mb 50f 49f
8:30pm 24 31 mph 1021.3mb 50f 49f
8:24pm 28 30 mph 1021.1mb 50f 49f
8:18pm 28 30 mph 1021.1mb 50f 49f
8:12pm 29 32 mph 1021.2mb 50f 49f
8:06pm 29 32 mph 1021.1mb 50f 49f
8:00pm 26 31 mph 1021.1mb 51f 48f
7:54pm 18 44 mph 1021.3mb 51f 46f
7:48pm 16 32 mph 1021.1mb 51f 48f
7:36pm 20 24 mph 1021mb 51f 48f
7:30pm 17 20 mph 1021mb 51f 49f
7:24pm 16 20 mph 1020.9mb 51f 49f
7:18pm 21 33 mph 1020.8mb 51f 48f
7:12pm 29 33 mph 1020.8mb 51f 48f
7:06pm 29 33 mph 1020.8mb 51f 49f
7:00pm 24 26 mph 1020.8mb 51f 49f
6:54pm 24 28 mph 1020.7mb 51f 49f
6:48pm 23 26 mph 1020.6mb 51f 49f
6:36pm 18 23 mph 1020.5mb 51f 49f
6:30pm 16 21 mph 1020.5mb 51f 49f
6:24pm 21 29 mph 1020.5mb 51f 50f
6:18pm 22 26 mph 1020.4mb 52f 50f
6:12pm 17 23 mph 1020.4mb 52f 49f
6:06pm 16 21 mph 1020.5mb 52f 50f
6:00pm 18 24 mph 1020.5mb 52f 50f
5:54pm 18 22 mph 1020.5mb 52f 50f
5:48pm 22 24 mph 1020.4mb 52f 50f
5:36pm 20 28 mph 1020.2mb 52f 50f
5:30pm 22 28 mph 1020.2mb 51f 50f
5:24pm 24 28 mph 1020.1mb 51f 50f
5:18pm 24 28 mph 1020mb 51f 50f
5:12pm 23 26 mph 1020mb 51f 50f
5:06pm 24 29 mph 1020mb 51f 50f
5:00pm 23 28 mph 1020mb 51f 50f
4:54pm 23 28 mph 1020mb 51f 50f
4:48pm 25 30 mph 1019.8mb 51f 50f
4:36pm 29 32 mph 1019.8mb 51f 50f
4:30pm 25 32 mph 1019.8mb 51f 50f
4:24pm 24 29 mph 1019.7mb 51f 50f
4:18pm 25 28 mph 1019.6mb 51f 50f
4:12pm 24 30 mph 1019.6mb 51f 51f
4:06pm 23 28 mph 1019.6mb 51f 50f
4:00pm 25 30 mph 1019.5mb 51f 50f
3:54pm 23 29 mph 1019.5mb 51f 51f
3:48pm 25 31 mph 1019.4mb 51f 51f
3:36pm 29 32 mph 1019.2mb 51f 51f
2:36pm 30 33 mph 1018.6mb 53f 51f
2:30pm 29 34 mph 1018.6mb 53f 51f
2:24pm 30 34 mph 1018.6mb 53f 51f
2:18pm 31 37 mph 1018.6mb 53f 50f
2:12pm 25 33 mph 1018.4mb 53f 51f
2:06pm 28 33 mph 1018.4mb 53f 51f
2:00pm 31 36 mph 1018.4mb 53f 51f
1:54pm 31 36 mph 1018.4mb 53f 52f
1:48pm 30 36 mph 1018.2mb 53f 52f
1:36pm 30 34 mph 1018.2mb 53f 51f
1:30pm 31 36 mph 1018mb 53f 51f
1:24pm 32 37 mph 1018.1mb 53f 51f
1:18pm 32 36 mph 1018mb 53f 51f
1:12pm 36 41 mph 1018.1mb 53f 51f
1:06pm 33 41 mph 1017.8mb 53f 51f
1:00pm 34 41 mph 1017.8mb 53f 52f
12:54pm 34 40 mph 1017.9mb 53f 51f
12:48pm 32 37 mph 1017.7mb 53f 52f
12:36pm 34 39 mph 1017.6mb 53f 52f
12:30pm 36 40 mph 1017.6mb 53f 52f
12:24pm 36 39 mph 1017.6mb 53f 51f
12:18pm 34 39 mph 1017.7mb 53f 51f
12:12pm 33 41 mph 1017.6mb 53f 51f
12:06pm 34 41 mph 1017.6mb 53f 51f
12:00pm 37 41 mph 1017.5mb 53f 51f
11:54am 36 43 mph 1017.6mb 53f 51f
11:48am 34 41 mph 1017.6mb 53f 52f
11:36am 36 40 mph 1017.5mb 53f 52f
11:30am 32 39 mph 1017.3mb 53f 52f
11:24am 33 39 mph 1017.4mb 53f 52f
11:18am 36 39 mph 1017.3mb 53f 52f
11:12am 36 39 mph 1017.3mb 53f 52f
11:06am 36 43 mph 1017.2mb 53f 52f
11:00am 34 40 mph 1017.2mb 53f 52f
10:54am 37 40 mph 1017.1mb 53f 51f
10:48am 31 38 mph 1017.3mb 53f 51f
10:36am 34 40 mph 1017.1mb 53f 51f
10:30am 33 39 mph 1016.9mb 53f 51f
10:24am 37 41 mph 1016.9mb 53f 51f
10:18am 31 37 mph 1017mb 52f 50f
10:12am 34 39 mph 1016.9mb 52f 51f
10:06am 34 40 mph 1016.8mb 52f 50f
10:00am 39 43 mph 1016.7mb 52f 51f
9:54am 34 39 mph 1016.7mb 52f 51f
9:48am 25 29 mph 1016.6mb 52f 49f
9:36am 34 47 mph 1016.5mb 52f 48f
9:30am 32 41 mph 1016.3mb 53f 51f
9:24am 36 43 mph 1016.1mb 53f 51f
9:18am 39 45 mph 1016mb 53f 51f
9:12am 34 39 mph 1015.9mb 53f 51f
9:06am 37 44 mph 1015.7mb 53f 51f
9:00am 31 34 mph 1015.7mb 52f 50f
8:54am 26 32 mph 1015.7mb 52f 49f
8:48am 30 41 mph 1015.7mb 52f 47f
8:36am 34 53 mph 1015.3mb 52f 51f
8:30am 26 31 mph 1015.1mb 53f 51f
8:24am 23 29 mph 1015.1mb 53f 51f
8:18am 29 34 mph 1015mb 53f 50f
8:12am 26 31 mph 1015mb 53f 51f
8:06am 23 36 mph 1014.9mb 53f 51f
8:00am 26 37 mph 1014.9mb 53f 50f
7:54am 26 32 mph 1014.8mb 53f 50f
7:48am 28 33 mph 1014.9mb 53f 50f
7:36am 33 43 mph 1014.8mb 53f 50f
7:30am 25 28 mph 1014.7mb 53f 49f
7:24am 24 33 mph 1014.7mb 53f 49f
7:18am 31 37 mph 1014.6mb 53f 50f
7:12am 30 39 mph 1014.5mb 53f 50f
7:06am 29 38 mph 1014.4mb 53f 50f
7:00am 25 32 mph 1014.3mb 53f 50f
6:54am 28 31 mph 1014.2mb 53f 50f
6:48am 26 31 mph 1014.1mb 53f 50f
6:36am 25 34 mph 1013.9mb 53f 49f
6:30am 25 32 mph 1013.8mb 53f 49f
6:24am 28 34 mph 1013.8mb 53f 50f
6:18am 28 33 mph 1013.7mb 53f 50f
6:12am 28 34 mph 1013.6mb 53f 50f
6:06am 28 34 mph 1013.5mb 53f 49f
6:00am 29 36 mph 1013.4mb 53f 49f
5:54am 32 38 mph 1013.4mb 54f 48f
5:48am 36 44 mph 1013.2mb 54f 49f
5:36am 29 36 mph 1013.1mb 53f 50f
5:30am 32 37 mph 1013.1mb 54f 49f
5:24am 28 33 mph 1013mb 53f 49f
5:18am 30 39 mph 1012.8mb 53f 48f
5:12am 31 34 mph 1012.8mb 53f 51f
5:06am 31 34 mph 1012.8mb 53f 51f
5:00am 29 34 mph 1012.9mb 53f 51f
4:54am 30 36 mph 1012.8mb 53f 51f
4:48am 31 34 mph 1012.7mb 53f 50f
4:36am 30 39 mph 1012.6mb 53f 50f
4:30am 29 36 mph 1012.5mb 53f 50f
4:24am 31 38 mph 1012.5mb 53f 50f
4:18am 34 39 mph 1012.4mb 53f 51f
4:12am 33 38 mph 1012.3mb 53f 51f
4:06am 30 37 mph 1012.4mb 53f 51f
4:00am 32 40 mph 1012.3mb 54f 50f
3:54am 33 37 mph 1012.2mb 54f 50f
3:48am 34 39 mph 1012.1mb 54f 50f
3:36am 32 39 mph 1012.1mb 54f 50f
3:30am 33 41 mph 1012.1mb 54f 50f
3:24am 31 37 mph 1012mb 54f 50f
3:18am 31 38 mph 1011.9mb 54f 50f
3:12am 33 40 mph 1011.9mb 54f 50f
3:06am 33 37 mph 1011.8mb 54f 50f
3:00am 32 38 mph 1011.7mb 54f 50f
2:54am 37 41 mph 1011.6mb 54f 51f
2:48am 34 39 mph 1011.6mb 54f 51f
2:36am 33 40 mph 1011.6mb 54f 51f
2:30am 31 36 mph 1011.6mb 54f 51f
2:24am 29 37 mph 1011.5mb 54f 49f
2:18am 34 44 mph 1011.5mb 54f 49f
2:12am 30 38 mph 1011.4mb 54f 51f
2:06am 32 38 mph 1011.4mb 54f 51f
2:00am 26 37 mph 1011.3mb 54f 50f
1:54am 29 39 mph 1011.2mb 54f 49f
1:48am 31 38 mph 1011.2mb 54f 50f
1:36am 29 32 mph 1011.1mb 54f 51f
1:30am 26 32 mph 1011.1mb 54f 50f
1:24am 26 33 mph 1011.1mb 54f 50f
1:18am 29 36 mph 1011mb 54f 50f
1:12am 28 37 mph 1011mb 54f 49f
1:06am 31 39 mph 1011mb 54f 50f
1:00am 28 34 mph 1010.8mb 54f 51f
12:54am 28 33 mph 1010.8mb 54f 50f
12:48am 33 40 mph 1010.6mb 54f 50f
12:36am 30 39 mph 1010.6mb 54f 51f
12:30am 30 34 mph 1010.5mb 54f 51f
12:24am 32 39 mph 1010.6mb 54f 51f
12:18am 26 36 mph 1010.5mb 54f 51f
12:12am 36 43 mph 1010.5mb 54f 50f
12:06am 29 34 mph 1010.5mb 54f 51f
12:00am 29 37 mph 1010.4mb 54f 51f
Tue 11/29 11:54pm 31 38 mph 1010.4mb 54f 51f
11:48pm 31 36 mph 1010.3mb 53f 51f
11:36pm 24 36 mph 1010mb 53f 50f
11:30pm 33 39 mph 1009.9mb 53f 51f
11:24pm 30 39 mph 1009.9mb 53f 51f
11:18pm 29 37 mph 1009.7mb 52f 51f
11:12pm 25 34 mph 1009.7mb 52f 50f
11:06pm 25 34 mph 1009.6mb 52f 48f
11:00pm 22 25 mph 1009.6mb 52f 48f
10:54pm 15 25 mph 1009.5mb 51f 47f
10:48pm 15 25 mph 1009.4mb 51f 46f
10:36pm 11 21 mph 1009.2mb 51f 46f
10:30pm 15 23 mph 1009.2mb 51f 46f
10:24pm 15 22 mph 1009.4mb 51f 46f
10:18pm 16 24 mph 1009.4mb 51f 46f
10:12pm 15 22 mph 1009.4mb 51f 46f
10:06pm 16 26 mph 1009.5mb 51f 46f
10:00pm 14 23 mph 1009.7mb 51f 46f
9:54pm 15 23 mph 1009.8mb 51f 46f
9:48pm 11 21 mph 1010mb 51f 45f
9:36pm 13 18 mph 1009.8mb 51f 45f
9:30pm 14 18 mph 1009.9mb 51f 45f
9:24pm 14 16 mph 1009.9mb 51f 46f
9:18pm 14 18 mph 1010mb 51f 46f
9:12pm 13 18 mph 1010.1mb 51f 45f
9:06pm 11 16 mph 1010.2mb 51f 45f
9:00pm 14 20 mph 1010.4mb 51f 45f
8:36pm 13 17 mph 1011mb 52f 45f
8:30pm 13 16 mph 1011.1mb 52f 45f
8:24pm 11 15 mph 1011.2mb 52f 45f
8:18pm 13 15 mph 1011.3mb 52f 45f
8:12pm 11 15 mph 1011.4mb 52f 45f
8:06pm 11 16 mph 1011.5mb 52f 45f
8:00pm 14 16 mph 1011.6mb 52f 46f
7:54pm 10 14 mph 1011.9mb 52f 46f
7:48pm 9 14 mph 1012.1mb 52f 46f
7:36pm 11 14 mph 1012.1mb 52f 47f
7:30pm 10 14 mph 1012.2mb 51f 47f
7:24pm 11 16 mph 1012.1mb 51f 47f
7:18pm 11 16 mph 1011.9mb 51f 47f
7:12pm 13 16 mph 1011.9mb 51f 47f
7:06pm 11 17 mph 1012.1mb 51f 47f
7:00pm 9 13 mph 1012.2mb 51f 47f
6:54pm 9 13 mph 1012.1mb 51f 46f
6:48pm 10 11 mph 1012.3mb 51f 46f
6:36pm 10 15 mph 1012.3mb 51f 46f
6:30pm 11 15 mph 1012.5mb 51f 46f
6:24pm 10 14 mph 1012.6mb 51f 47f
6:18pm 11 17 mph 1012.8mb 51f 47f
6:12pm 10 14 mph 1013mb 51f 47f
6:06pm 9 15 mph 1013mb 51f 47f
6:00pm 14 16 mph 1013mb 51f 47f
5:54pm 11 15 mph 1013.3mb 51f 47f
5:48pm 10 14 mph 1013.5mb 51f 47f
5:36pm 9 13 mph 1013.9mb 52f 47f
5:30pm 8 11 mph 1014mb 52f 47f
5:24pm 10 14 mph 1013.9mb 52f 47f
5:18pm 11 15 mph 1014.1mb 52f 48f
5:12pm 10 14 mph 1014.2mb 52f 48f
5:06pm 11 15 mph 1014.1mb 52f 48f
5:00pm 10 13 mph 1014.4mb 52f 48f
4:54pm 10 16 mph 1014.5mb 52f 48f
4:48pm 10 13 mph 1014.7mb 52f 48f
4:36pm 9 14 mph 1015mb 52f 48f
4:30pm 8 11 mph 1015.2mb 51f 48f
4:24pm 8 11 mph 1015.3mb 51f 49f
4:18pm 8 11 mph 1015.5mb 51f 49f
4:12pm 8 10 mph 1015.7mb 51f 49f
4:06pm 7 10 mph 1015.9mb 51f 49f
4:00pm 7 10 mph 1015.8mb 52f 49f
3:54pm 6 9 mph 1016.1mb 52f 49f
3:48pm 7 9 mph 1016.2mb 52f 49f
3:36pm 8 13 mph 1016mb 52f 49f
3:30pm 9 13 mph 1016mb 52f 49f
3:24pm 8 14 mph 1015.9mb 52f 49f
3:18pm 10 15 mph 1016mb 53f 49f
3:12pm 11 16 mph 1016.2mb 53f 50f
3:06pm 10 14 mph 1016.3mb 53f 50f
3:00pm 9 13 mph 1016.4mb 53f 50f
2:54pm 7 11 mph 1016.6mb 52f 50f
2:48pm 8 13 mph 1016.9mb 52f 50f
2:36pm 7 13 mph 1017.1mb 53f 50f
2:30pm 6 11 mph 1017.2mb 53f 50f
2:24pm 8 14 mph 1017.4mb 53f 50f
2:18pm 9 14 mph 1017.5mb 53f 50f
2:12pm 8 17 mph 1017.5mb 53f 50f
2:06pm 11 17 mph 1017.7mb 54f 50f
2:00pm 10 18 mph 1017.8mb 54f 51f
1:54pm 11 16 mph 1017.8mb 54f 51f
1:48pm 9 13 mph 1018mb 54f 51f
1:36pm 10 15 mph 1018.2mb 53f 50f
1:30pm 8 11 mph 1018.3mb 54f 50f
1:24pm 9 13 mph 1018.3mb 54f 49f
1:18pm 7 11 mph 1018.3mb 54f 49f
1:12pm 9 14 mph 1018.4mb 54f 49f
1:06pm 11 15 mph 1018.6mb 54f 49f
1:00pm 10 15 mph 1018.9mb 54f 49f
12:54pm 9 14 mph 1019mb 54f 49f
12:48pm 9 13 mph 1019mb 54f 49f
12:36pm 8 13 mph 1019.4mb 54f 49f
12:30pm 7 14 mph 1019.5mb 54f 49f
12:24pm 6 11 mph 1019.5mb 54f 49f
12:18pm 9 13 mph 1019.5mb 54f 49f
12:12pm 9 14 mph 1019.5mb 54f 49f
12:06pm 8 14 mph 1019.7mb 54f 49f
12:00pm 9 14 mph 1019.8mb 54f 49f
11:54am 8 13 mph 1019.8mb 54f 49f
11:48am 9 14 mph 1020.1mb 54f 49f
11:36am 6 14 mph 1020.2mb 54f 49f
11:30am 8 10 mph 1020.4mb 54f 49f
11:24am 8 13 mph 1020.6mb 54f 49f
11:18am 8 11 mph 1020.7mb 54f 48f
11:12am 9 14 mph 1020.7mb 54f 49f
11:06am 9 14 mph 1020.8mb 54f 48f
11:00am 9 13 mph 1020.9mb 54f 48f
10:54am 6 11 mph 1020.9mb 54f 48f
10:48am 8 11 mph 1020.9mb 53f 48f
10:36am 5 9 mph 1021.2mb 53f 48f
10:30am 8 13 mph 1021.2mb 53f 48f
10:24am 6 8 mph 1021.3mb 53f 48f
10:18am 5 10 mph 1021.3mb 53f 48f
10:12am 6 8 mph 1021.4mb 53f 47f
10:06am 5 8 mph 1021.4mb 53f 47f
10:00am 7 9 mph 1021.3mb 52f 47f
9:54am 5 7 mph 1021.3mb 52f 47f
9:48am 5 7 mph 1021.3mb 52f 47f
9:36am 5 6 mph 1021.3mb 52f 46f
9:30am 5 6 mph 1021.3mb 52f 46f
9:24am 5 7 mph 1021.3mb 52f 46f
9:18am 6 7 mph 1021.3mb 52f 46f
9:12am 6 8 mph 1021.3mb 52f 46f
9:06am 5 9 mph 1021.2mb 52f 46f
9:00am 6 8 mph 1021.2mb 52f 45f
8:54am 6 7 mph 1021.2mb 51f 45f
8:48am 5 7 mph 1021.2mb 51f 45f
8:36am 7 9 mph 1021mb 51f 45f
8:30am 7 8 mph 1020.9mb 51f 45f
8:24am 6 8 mph 1020.9mb 51f 45f
8:18am 7 9 mph 1020.9mb 51f 45f